sensor_id;sensor_type;location;lat;lon;timestamp;P1;durP1;ratioP1;P2;durP2;ratioP2
71196;SDS011;58918;51.652;4.864;2022-07-06T00:01:17;2.88;;;0.77;;
71196;SDS011;58918;51.652;4.864;2022-07-06T00:03:45;2.70;;;1.00;;
71196;SDS011;58918;51.652;4.864;2022-07-06T00:06:20;2.33;;;1.00;;
71196;SDS011;58918;51.652;4.864;2022-07-06T00:08:47;3.78;;;0.90;;
71196;SDS011;58918;51.652;4.864;2022-07-06T00:11:15;2.10;;;0.80;;
71196;SDS011;58918;51.652;4.864;2022-07-06T00:13:42;2.15;;;0.90;;
71196;SDS011;58918;51.652;4.864;2022-07-06T00:16:10;2.40;;;0.80;;
71196;SDS011;58918;51.652;4.864;2022-07-06T00:18:37;2.42;;;0.90;;
71196;SDS011;58918;51.652;4.864;2022-07-06T00:21:04;3.42;;;0.85;;
71196;SDS011;58918;51.652;4.864;2022-07-06T00:23:32;2.90;;;1.10;;
71196;SDS011;58918;51.652;4.864;2022-07-06T00:25:59;2.70;;;0.85;;
71196;SDS011;58918;51.652;4.864;2022-07-06T00:28:26;3.13;;;0.90;;
71196;SDS011;58918;51.652;4.864;2022-07-06T00:30:53;2.42;;;0.90;;
71196;SDS011;58918;51.652;4.864;2022-07-06T00:33:21;2.35;;;0.80;;
71196;SDS011;58918;51.652;4.864;2022-07-06T00:35:48;1.95;;;0.90;;
71196;SDS011;58918;51.652;4.864;2022-07-06T00:38:15;2.83;;;0.80;;
71196;SDS011;58918;51.652;4.864;2022-07-06T00:40:43;3.03;;;1.00;;
71196;SDS011;58918;51.652;4.864;2022-07-06T00:43:10;2.83;;;0.82;;
71196;SDS011;58918;51.652;4.864;2022-07-06T00:45:38;2.50;;;0.98;;
71196;SDS011;58918;51.652;4.864;2022-07-06T00:48:05;2.85;;;1.00;;
71196;SDS011;58918;51.652;4.864;2022-07-06T00:50:33;2.95;;;0.98;;
71196;SDS011;58918;51.652;4.864;2022-07-06T00:53:01;2.63;;;0.80;;
71196;SDS011;58918;51.652;4.864;2022-07-06T00:55:33;3.20;;;1.17;;
71196;SDS011;58918;51.652;4.864;2022-07-06T00:58:01;3.42;;;1.02;;
71196;SDS011;58918;51.652;4.864;2022-07-06T01:00:29;2.42;;;0.90;;
71196;SDS011;58918;51.652;4.864;2022-07-06T01:02:57;3.65;;;1.17;;
71196;SDS011;58918;51.652;4.864;2022-07-06T01:05:24;3.30;;;1.50;;
71196;SDS011;58918;51.652;4.864;2022-07-06T01:07:52;3.65;;;1.40;;
71196;SDS011;58918;51.652;4.864;2022-07-06T01:10:20;3.08;;;1.10;;
71196;SDS011;58918;51.652;4.864;2022-07-06T01:12:49;2.78;;;1.10;;
71196;SDS011;58918;51.652;4.864;2022-07-06T01:15:17;4.47;;;1.25;;
71196;SDS011;58918;51.652;4.864;2022-07-06T01:17:45;4.97;;;1.25;;
71196;SDS011;58918;51.652;4.864;2022-07-06T01:20:19;3.15;;;1.23;;
71196;SDS011;58918;51.652;4.864;2022-07-06T01:22:47;3.97;;;1.00;;
71196;SDS011;58918;51.652;4.864;2022-07-06T01:25:14;4.88;;;1.10;;
71196;SDS011;58918;51.652;4.864;2022-07-06T01:27:42;2.63;;;1.20;;
71196;SDS011;58918;51.652;4.864;2022-07-06T01:30:10;2.95;;;1.13;;
71196;SDS011;58918;51.652;4.864;2022-07-06T01:32:38;3.97;;;1.33;;
71196;SDS011;58918;51.652;4.864;2022-07-06T01:35:06;3.85;;;1.42;;
71196;SDS011;58918;51.652;4.864;2022-07-06T01:37:34;3.75;;;1.30;;
71196;SDS011;58918;51.652;4.864;2022-07-06T01:40:05;3.88;;;1.25;;
71196;SDS011;58918;51.652;4.864;2022-07-06T01:42:33;3.70;;;1.25;;
71196;SDS011;58918;51.652;4.864;2022-07-06T01:45:00;3.70;;;1.25;;
71196;SDS011;58918;51.652;4.864;2022-07-06T01:47:27;5.00;;;1.20;;
71196;SDS011;58918;51.652;4.864;2022-07-06T01:49:57;4.07;;;1.42;;
71196;SDS011;58918;51.652;4.864;2022-07-06T01:52:26;4.45;;;1.42;;
71196;SDS011;58918;51.652;4.864;2022-07-06T01:54:54;3.60;;;1.20;;
71196;SDS011;58918;51.652;4.864;2022-07-06T01:57:21;4.80;;;1.23;;
71196;SDS011;58918;51.652;4.864;2022-07-06T01:59:48;7.32;;;1.45;;
71196;SDS011;58918;51.652;4.864;2022-07-06T02:02:15;3.78;;;1.45;;
71196;SDS011;58918;51.652;4.864;2022-07-06T02:04:43;4.25;;;1.40;;
71196;SDS011;58918;51.652;4.864;2022-07-06T02:07:10;4.60;;;1.20;;
71196;SDS011;58918;51.652;4.864;2022-07-06T02:09:38;4.28;;;1.20;;
71196;SDS011;58918;51.652;4.864;2022-07-06T02:12:05;2.95;;;1.10;;
71196;SDS011;58918;51.652;4.864;2022-07-06T02:14:32;3.20;;;1.20;;
71196;SDS011;58918;51.652;4.864;2022-07-06T02:16:59;4.15;;;1.17;;
71196;SDS011;58918;51.652;4.864;2022-07-06T02:19:26;4.38;;;1.20;;
71196;SDS011;58918;51.652;4.864;2022-07-06T02:21:54;2.90;;;1.13;;
71196;SDS011;58918;51.652;4.864;2022-07-06T02:24:21;3.13;;;1.10;;
71196;SDS011;58918;51.652;4.864;2022-07-06T02:26:48;4.18;;;1.20;;
71196;SDS011;58918;51.652;4.864;2022-07-06T02:29:15;4.25;;;1.33;;
71196;SDS011;58918;51.652;4.864;2022-07-06T02:31:42;3.85;;;1.20;;
71196;SDS011;58918;51.652;4.864;2022-07-06T02:34:11;2.58;;;0.85;;
71196;SDS011;58918;51.652;4.864;2022-07-06T02:39:05;4.85;;;1.35;;
71196;SDS011;58918;51.652;4.864;2022-07-06T02:41:33;4.30;;;1.13;;
71196;SDS011;58918;51.652;4.864;2022-07-06T02:44:00;3.15;;;0.93;;
71196;SDS011;58918;51.652;4.864;2022-07-06T02:46:27;3.97;;;1.20;;
71196;SDS011;58918;51.652;4.864;2022-07-06T02:48:54;2.70;;;1.00;;
71196;SDS011;58918;51.652;4.864;2022-07-06T02:51:21;3.17;;;1.10;;
71196;SDS011;58918;51.652;4.864;2022-07-06T02:53:49;3.83;;;1.05;;
71196;SDS011;58918;51.652;4.864;2022-07-06T02:56:17;3.28;;;1.15;;
71196;SDS011;58918;51.652;4.864;2022-07-06T02:58:44;3.00;;;1.20;;
71196;SDS011;58918;51.652;4.864;2022-07-06T03:01:11;2.90;;;1.10;;
71196;SDS011;58918;51.652;4.864;2022-07-06T03:03:39;3.92;;;1.30;;
71196;SDS011;58918;51.652;4.864;2022-07-06T03:06:06;3.08;;;1.00;;
71196;SDS011;58918;51.652;4.864;2022-07-06T03:08:33;3.22;;;1.20;;
71196;SDS011;58918;51.652;4.864;2022-07-06T03:11:00;3.20;;;1.02;;
71196;SDS011;58918;51.652;4.864;2022-07-06T03:13:28;3.78;;;0.93;;
71196;SDS011;58918;51.652;4.864;2022-07-06T03:15:55;3.20;;;1.20;;
71196;SDS011;58918;51.652;4.864;2022-07-06T03:18:22;2.40;;;0.82;;
71196;SDS011;58918;51.652;4.864;2022-07-06T03:20:50;2.92;;;1.15;;
71196;SDS011;58918;51.652;4.864;2022-07-06T03:23:17;2.92;;;1.10;;
71196;SDS011;58918;51.652;4.864;2022-07-06T03:25:45;2.83;;;1.10;;
71196;SDS011;58918;51.652;4.864;2022-07-06T03:28:12;3.38;;;1.25;;
71196;SDS011;58918;51.652;4.864;2022-07-06T03:30:39;2.08;;;1.00;;
71196;SDS011;58918;51.652;4.864;2022-07-06T03:33:06;4.75;;;1.42;;
71196;SDS011;58918;51.652;4.864;2022-07-06T03:35:33;2.80;;;1.10;;
71196;SDS011;58918;51.652;4.864;2022-07-06T03:38:01;3.08;;;1.02;;
71196;SDS011;58918;51.652;4.864;2022-07-06T03:40:29;3.58;;;1.10;;
71196;SDS011;58918;51.652;4.864;2022-07-06T03:42:56;2.67;;;1.10;;
71196;SDS011;58918;51.652;4.864;2022-07-06T03:45:23;2.30;;;0.90;;
71196;SDS011;58918;51.652;4.864;2022-07-06T03:47:50;4.50;;;1.27;;
71196;SDS011;58918;51.652;4.864;2022-07-06T03:50:17;3.85;;;1.20;;
71196;SDS011;58918;51.652;4.864;2022-07-06T03:52:44;4.35;;;1.00;;
71196;SDS011;58918;51.652;4.864;2022-07-06T03:55:12;3.22;;;1.13;;
71196;SDS011;58918;51.652;4.864;2022-07-06T03:57:39;10.10;;;1.90;;
71196;SDS011;58918;51.652;4.864;2022-07-06T04:00:07;5.18;;;1.40;;
71196;SDS011;58918;51.652;4.864;2022-07-06T04:02:34;4.28;;;1.00;;
71196;SDS011;58918;51.652;4.864;2022-07-06T04:05:02;5.15;;;1.15;;
71196;SDS011;58918;51.652;4.864;2022-07-06T04:07:29;4.13;;;1.27;;
71196;SDS011;58918;51.652;4.864;2022-07-06T04:09:56;4.00;;;1.02;;
71196;SDS011;58918;51.652;4.864;2022-07-06T04:12:23;4.47;;;1.33;;
71196;SDS011;58918;51.652;4.864;2022-07-06T04:14:51;4.90;;;1.23;;
71196;SDS011;58918;51.652;4.864;2022-07-06T04:17:19;4.25;;;1.30;;
71196;SDS011;58918;51.652;4.864;2022-07-06T04:20:05;4.03;;;1.20;;
71196;SDS011;58918;51.652;4.864;2022-07-06T04:22:32;4.10;;;1.10;;
71196;SDS011;58918;51.652;4.864;2022-07-06T04:24:59;3.78;;;1.50;;
71196;SDS011;58918;51.652;4.864;2022-07-06T04:27:27;5.13;;;1.10;;
71196;SDS011;58918;51.652;4.864;2022-07-06T04:29:54;3.38;;;1.02;;
71196;SDS011;58918;51.652;4.864;2022-07-06T04:32:21;4.35;;;1.35;;
71196;SDS011;58918;51.652;4.864;2022-07-06T04:34:51;4.75;;;1.00;;
71196;SDS011;58918;51.652;4.864;2022-07-06T04:37:18;4.15;;;1.00;;
71196;SDS011;58918;51.652;4.864;2022-07-06T04:39:45;6.10;;;1.00;;
71196;SDS011;58918;51.652;4.864;2022-07-06T04:42:12;3.38;;;0.90;;
71196;SDS011;58918;51.652;4.864;2022-07-06T04:44:39;5.15;;;1.10;;
71196;SDS011;58918;51.652;4.864;2022-07-06T04:47:06;3.25;;;0.88;;
71196;SDS011;58918;51.652;4.864;2022-07-06T04:49:34;3.00;;;1.00;;
71196;SDS011;58918;51.652;4.864;2022-07-06T04:52:01;3.90;;;1.20;;
71196;SDS011;58918;51.652;4.864;2022-07-06T04:54:28;4.25;;;1.25;;
71196;SDS011;58918;51.652;4.864;2022-07-06T04:56:56;5.22;;;1.20;;
71196;SDS011;58918;51.652;4.864;2022-07-06T04:59:23;4.38;;;1.48;;
71196;SDS011;58918;51.652;4.864;2022-07-06T05:01:50;4.35;;;1.23;;
71196;SDS011;58918;51.652;4.864;2022-07-06T05:04:17;4.40;;;1.02;;
71196;SDS011;58918;51.652;4.864;2022-07-06T05:06:46;5.32;;;1.08;;
71196;SDS011;58918;51.652;4.864;2022-07-06T05:09:13;2.53;;;0.90;;
71196;SDS011;58918;51.652;4.864;2022-07-06T05:11:40;3.42;;;1.00;;
71196;SDS011;58918;51.652;4.864;2022-07-06T05:14:08;3.25;;;1.17;;
71196;SDS011;58918;51.652;4.864;2022-07-06T05:16:35;4.15;;;1.23;;
71196;SDS011;58918;51.652;4.864;2022-07-06T05:19:02;3.38;;;0.93;;
71196;SDS011;58918;51.652;4.864;2022-07-06T05:21:29;4.80;;;1.00;;
71196;SDS011;58918;51.652;4.864;2022-07-06T05:23:56;2.80;;;0.95;;
71196;SDS011;58918;51.652;4.864;2022-07-06T05:26:23;4.28;;;0.85;;
71196;SDS011;58918;51.652;4.864;2022-07-06T05:28:51;3.63;;;0.93;;
71196;SDS011;58918;51.652;4.864;2022-07-06T05:31:18;5.40;;;1.15;;
71196;SDS011;58918;51.652;4.864;2022-07-06T05:33:45;4.68;;;1.00;;
71196;SDS011;58918;51.652;4.864;2022-07-06T05:36:12;3.38;;;1.30;;
71196;SDS011;58918;51.652;4.864;2022-07-06T05:38:39;5.00;;;1.30;;
71196;SDS011;58918;51.652;4.864;2022-07-06T05:41:07;3.15;;;1.20;;
71196;SDS011;58918;51.652;4.864;2022-07-06T05:43:37;4.22;;;1.20;;
71196;SDS011;58918;51.652;4.864;2022-07-06T05:46:05;4.13;;;1.00;;
71196;SDS011;58918;51.652;4.864;2022-07-06T05:48:32;6.80;;;1.10;;
71196;SDS011;58918;51.652;4.864;2022-07-06T05:51:18;6.05;;;1.08;;
71196;SDS011;58918;51.652;4.864;2022-07-06T05:53:45;5.80;;;1.00;;
71196;SDS011;58918;51.652;4.864;2022-07-06T05:56:13;5.07;;;1.30;;
71196;SDS011;58918;51.652;4.864;2022-07-06T05:58:41;4.97;;;1.02;;
71196;SDS011;58918;51.652;4.864;2022-07-06T06:01:11;4.53;;;1.02;;
71196;SDS011;58918;51.652;4.864;2022-07-06T06:03:38;3.30;;;1.30;;
71196;SDS011;58918;51.652;4.864;2022-07-06T06:06:05;3.17;;;1.10;;
71196;SDS011;58918;51.652;4.864;2022-07-06T06:08:33;8.10;;;1.00;;
71196;SDS011;58918;51.652;4.864;2022-07-06T06:11:00;3.15;;;1.13;;
71196;SDS011;58918;51.652;4.864;2022-07-06T06:13:35;4.18;;;0.93;;
71196;SDS011;58918;51.652;4.864;2022-07-06T06:16:02;3.50;;;1.08;;
71196;SDS011;58918;51.652;4.864;2022-07-06T06:18:30;2.58;;;0.80;;
71196;SDS011;58918;51.652;4.864;2022-07-06T06:21:04;2.25;;;0.70;;
71196;SDS011;58918;51.652;4.864;2022-07-06T06:23:31;2.80;;;0.73;;
71196;SDS011;58918;51.652;4.864;2022-07-06T06:25:58;3.28;;;0.80;;
71196;SDS011;58918;51.652;4.864;2022-07-06T06:28:25;2.90;;;1.00;;
71196;SDS011;58918;51.652;4.864;2022-07-06T06:30:53;4.97;;;1.13;;
71196;SDS011;58918;51.652;4.864;2022-07-06T06:33:20;3.90;;;1.02;;
71196;SDS011;58918;51.652;4.864;2022-07-06T06:35:49;4.35;;;0.82;;
71196;SDS011;58918;51.652;4.864;2022-07-06T06:38:17;5.22;;;0.68;;
71196;SDS011;58918;51.652;4.864;2022-07-06T06:40:44;2.30;;;0.80;;
71196;SDS011;58918;51.652;4.864;2022-07-06T06:43:11;3.55;;;0.70;;
71196;SDS011;58918;51.652;4.864;2022-07-06T06:45:39;2.22;;;0.70;;
71196;SDS011;58918;51.652;4.864;2022-07-06T06:48:07;3.17;;;0.80;;
71196;SDS011;58918;51.652;4.864;2022-07-06T06:50:41;2.38;;;0.60;;
71196;SDS011;58918;51.652;4.864;2022-07-06T06:53:09;3.75;;;0.80;;
71196;SDS011;58918;51.652;4.864;2022-07-06T06:55:36;3.35;;;0.77;;
71196;SDS011;58918;51.652;4.864;2022-07-06T06:58:03;3.50;;;0.75;;
71196;SDS011;58918;51.652;4.864;2022-07-06T07:00:30;2.97;;;0.80;;
71196;SDS011;58918;51.652;4.864;2022-07-06T07:02:57;2.03;;;0.60;;
71196;SDS011;58918;51.652;4.864;2022-07-06T07:05:25;2.15;;;0.77;;
71196;SDS011;58918;51.652;4.864;2022-07-06T07:07:52;1.88;;;0.60;;
71196;SDS011;58918;51.652;4.864;2022-07-06T07:10:29;1.75;;;0.60;;
71196;SDS011;58918;51.652;4.864;2022-07-06T07:12:57;1.85;;;0.60;;
71196;SDS011;58918;51.652;4.864;2022-07-06T07:15:24;3.22;;;0.80;;
71196;SDS011;58918;51.652;4.864;2022-07-06T07:17:52;2.95;;;0.80;;
71196;SDS011;58918;51.652;4.864;2022-07-06T07:20:19;1.63;;;0.57;;
71196;SDS011;58918;51.652;4.864;2022-07-06T07:22:46;2.65;;;0.55;;
71196;SDS011;58918;51.652;4.864;2022-07-06T07:25:14;3.25;;;0.70;;
71196;SDS011;58918;51.652;4.864;2022-07-06T07:27:41;4.35;;;0.80;;
71196;SDS011;58918;51.652;4.864;2022-07-06T07:30:11;4.60;;;0.70;;
71196;SDS011;58918;51.652;4.864;2022-07-06T07:32:39;3.35;;;0.70;;
71196;SDS011;58918;51.652;4.864;2022-07-06T07:35:09;4.75;;;1.10;;
71196;SDS011;58918;51.652;4.864;2022-07-06T07:37:36;2.83;;;0.77;;
71196;SDS011;58918;51.652;4.864;2022-07-06T07:40:03;2.58;;;0.90;;
71196;SDS011;58918;51.652;4.864;2022-07-06T07:42:32;4.35;;;0.80;;
71196;SDS011;58918;51.652;4.864;2022-07-06T07:44:59;2.85;;;0.90;;
71196;SDS011;58918;51.652;4.864;2022-07-06T07:47:26;1.40;;;0.60;;
71196;SDS011;58918;51.652;4.864;2022-07-06T07:49:53;3.25;;;0.80;;
71196;SDS011;58918;51.652;4.864;2022-07-06T07:52:21;2.28;;;0.60;;
71196;SDS011;58918;51.652;4.864;2022-07-06T07:54:48;3.95;;;0.98;;
71196;SDS011;58918;51.652;4.864;2022-07-06T07:57:35;1.40;;;0.60;;
71196;SDS011;58918;51.652;4.864;2022-07-06T08:00:03;1.80;;;0.60;;
71196;SDS011;58918;51.652;4.864;2022-07-06T08:02:30;2.05;;;0.50;;
71196;SDS011;58918;51.652;4.864;2022-07-06T08:04:57;3.25;;;0.80;;
71196;SDS011;58918;51.652;4.864;2022-07-06T08:07:25;3.50;;;0.90;;
71196;SDS011;58918;51.652;4.864;2022-07-06T08:09:52;2.83;;;0.70;;
71196;SDS011;58918;51.652;4.864;2022-07-06T08:12:19;3.25;;;0.55;;
71196;SDS011;58918;51.652;4.864;2022-07-06T08:14:46;3.00;;;0.80;;
71196;SDS011;58918;51.652;4.864;2022-07-06T08:17:13;1.65;;;0.47;;
71196;SDS011;58918;51.652;4.864;2022-07-06T08:19:40;2.45;;;0.57;;
71196;SDS011;58918;51.652;4.864;2022-07-06T08:22:08;2.55;;;0.60;;
71196;SDS011;58918;51.652;4.864;2022-07-06T08:24:36;2.35;;;0.63;;
71196;SDS011;58918;51.652;4.864;2022-07-06T08:27:03;0.65;;;0.40;;
71196;SDS011;58918;51.652;4.864;2022-07-06T08:29:30;4.03;;;0.70;;
71196;SDS011;58918;51.652;4.864;2022-07-06T08:31:57;3.60;;;0.70;;
71196;SDS011;58918;51.652;4.864;2022-07-06T08:34:37;2.47;;;0.70;;
71196;SDS011;58918;51.652;4.864;2022-07-06T08:37:05;2.05;;;0.60;;
71196;SDS011;58918;51.652;4.864;2022-07-06T08:39:32;1.63;;;0.50;;
71196;SDS011;58918;51.652;4.864;2022-07-06T08:41:59;2.33;;;0.75;;
71196;SDS011;58918;51.652;4.864;2022-07-06T08:44:27;1.90;;;0.50;;
71196;SDS011;58918;51.652;4.864;2022-07-06T08:46:55;2.65;;;0.60;;
71196;SDS011;58918;51.652;4.864;2022-07-06T08:49:24;2.65;;;0.60;;
71196;SDS011;58918;51.652;4.864;2022-07-06T08:51:52;1.42;;;0.40;;
71196;SDS011;58918;51.652;4.864;2022-07-06T08:54:19;3.85;;;0.63;;
71196;SDS011;58918;51.652;4.864;2022-07-06T08:56:49;2.75;;;0.57;;
71196;SDS011;58918;51.652;4.864;2022-07-06T08:59:16;2.67;;;0.65;;
71196;SDS011;58918;51.652;4.864;2022-07-06T09:01:46;2.55;;;0.50;;
71196;SDS011;58918;51.652;4.864;2022-07-06T09:04:18;1.63;;;0.57;;
71196;SDS011;58918;51.652;4.864;2022-07-06T09:06:46;1.95;;;0.50;;
71196;SDS011;58918;51.652;4.864;2022-07-06T09:11:41;1.70;;;0.50;;
71196;SDS011;58918;51.652;4.864;2022-07-06T09:14:09;1.45;;;0.50;;
71196;SDS011;58918;51.652;4.864;2022-07-06T09:16:36;3.22;;;0.80;;
71196;SDS011;58918;51.652;4.864;2022-07-06T09:19:06;2.35;;;0.55;;
71196;SDS011;58918;51.652;4.864;2022-07-06T09:21:34;2.53;;;0.60;;
71196;SDS011;58918;51.652;4.864;2022-07-06T09:24:10;2.70;;;0.50;;
71196;SDS011;58918;51.652;4.864;2022-07-06T09:26:38;4.13;;;0.60;;
71196;SDS011;58918;51.652;4.864;2022-07-06T09:29:06;1.90;;;0.47;;
71196;SDS011;58918;51.652;4.864;2022-07-06T09:31:33;2.92;;;0.60;;
71196;SDS011;58918;51.652;4.864;2022-07-06T09:34:02;3.05;;;0.75;;
71196;SDS011;58918;51.652;4.864;2022-07-06T09:39:25;2.85;;;0.70;;
71196;SDS011;58918;51.652;4.864;2022-07-06T09:41:53;1.05;;;0.50;;
71196;SDS011;58918;51.652;4.864;2022-07-06T09:44:21;2.30;;;0.65;;
71196;SDS011;58918;51.652;4.864;2022-07-06T09:46:49;1.60;;;0.52;;
71196;SDS011;58918;51.652;4.864;2022-07-06T09:49:17;2.30;;;0.70;;
71196;SDS011;58918;51.652;4.864;2022-07-06T09:51:45;2.40;;;0.50;;
71196;SDS011;58918;51.652;4.864;2022-07-06T09:54:13;2.30;;;0.50;;
71196;SDS011;58918;51.652;4.864;2022-07-06T09:56:41;2.53;;;0.45;;
71196;SDS011;58918;51.652;4.864;2022-07-06T09:59:12;1.85;;;0.52;;
71196;SDS011;58918;51.652;4.864;2022-07-06T10:01:40;1.15;;;0.50;;
71196;SDS011;58918;51.652;4.864;2022-07-06T10:04:09;2.10;;;0.73;;
71196;SDS011;58918;51.652;4.864;2022-07-06T10:06:39;2.20;;;0.50;;
71196;SDS011;58918;51.652;4.864;2022-07-06T10:09:09;2.85;;;0.80;;
71196;SDS011;58918;51.652;4.864;2022-07-06T10:11:40;2.33;;;0.57;;
71196;SDS011;58918;51.652;4.864;2022-07-06T10:16:35;1.45;;;0.52;;
71196;SDS011;58918;51.652;4.864;2022-07-06T10:19:06;2.20;;;0.60;;
71196;SDS011;58918;51.652;4.864;2022-07-06T10:21:37;1.88;;;0.50;;
71196;SDS011;58918;51.652;4.864;2022-07-06T10:24:05;2.00;;;0.63;;
71196;SDS011;58918;51.652;4.864;2022-07-06T10:26:33;2.38;;;0.50;;
71196;SDS011;58918;51.652;4.864;2022-07-06T10:29:04;1.95;;;0.63;;
71196;SDS011;58918;51.652;4.864;2022-07-06T10:31:32;3.17;;;0.63;;
71196;SDS011;58918;51.652;4.864;2022-07-06T10:34:01;1.05;;;0.50;;
71196;SDS011;58918;51.652;4.864;2022-07-06T10:36:28;3.72;;;0.95;;
71196;SDS011;58918;51.652;4.864;2022-07-06T10:38:56;1.83;;;0.60;;
71196;SDS011;58918;51.652;4.864;2022-07-06T10:41:30;2.60;;;0.50;;
71196;SDS011;58918;51.652;4.864;2022-07-06T10:43:58;2.25;;;0.55;;
71196;SDS011;58918;51.652;4.864;2022-07-06T10:46:41;1.92;;;0.52;;
71196;SDS011;58918;51.652;4.864;2022-07-06T10:49:14;1.73;;;0.60;;
71196;SDS011;58918;51.652;4.864;2022-07-06T10:52:02;2.47;;;0.60;;
71196;SDS011;58918;51.652;4.864;2022-07-06T10:54:32;2.40;;;0.60;;
71196;SDS011;58918;51.652;4.864;2022-07-06T10:59:33;0.93;;;0.40;;
71196;SDS011;58918;51.652;4.864;2022-07-06T11:02:19;3.33;;;0.90;;
71196;SDS011;58918;51.652;4.864;2022-07-06T11:04:47;2.20;;;0.70;;
71196;SDS011;58918;51.652;4.864;2022-07-06T11:07:15;7.03;;;0.90;;
71196;SDS011;58918;51.652;4.864;2022-07-06T11:09:53;7.13;;;1.13;;
71196;SDS011;58918;51.652;4.864;2022-07-06T11:12:21;4.13;;;0.60;;
71196;SDS011;58918;51.652;4.864;2022-07-06T11:14:48;3.20;;;0.80;;
71196;SDS011;58918;51.652;4.864;2022-07-06T11:17:16;5.18;;;0.60;;
71196;SDS011;58918;51.652;4.864;2022-07-06T11:19:50;2.42;;;0.50;;
71196;SDS011;58918;51.652;4.864;2022-07-06T11:22:18;4.78;;;0.60;;
71196;SDS011;58918;51.652;4.864;2022-07-06T11:24:45;1.85;;;0.60;;
71196;SDS011;58918;51.652;4.864;2022-07-06T11:27:13;2.92;;;0.75;;
71196;SDS011;58918;51.652;4.864;2022-07-06T11:29:41;2.13;;;0.63;;
71196;SDS011;58918;51.652;4.864;2022-07-06T11:32:09;3.78;;;0.70;;
71196;SDS011;58918;51.652;4.864;2022-07-06T11:34:39;2.70;;;0.80;;
71196;SDS011;58918;51.652;4.864;2022-07-06T11:37:07;3.60;;;0.90;;
71196;SDS011;58918;51.652;4.864;2022-07-06T11:39:38;3.05;;;0.70;;
71196;SDS011;58918;51.652;4.864;2022-07-06T11:42:08;4.03;;;1.35;;
71196;SDS011;58918;51.652;4.864;2022-07-06T11:44:36;3.95;;;0.80;;
71196;SDS011;58918;51.652;4.864;2022-07-06T11:47:04;5.32;;;0.90;;
71196;SDS011;58918;51.652;4.864;2022-07-06T11:49:32;2.33;;;0.70;;
71196;SDS011;58918;51.652;4.864;2022-07-06T11:52:06;2.42;;;0.93;;
71196;SDS011;58918;51.652;4.864;2022-07-06T11:54:34;3.17;;;0.60;;
71196;SDS011;58918;51.652;4.864;2022-07-06T11:57:01;3.95;;;0.68;;
71196;SDS011;58918;51.652;4.864;2022-07-06T11:59:31;3.03;;;0.82;;
71196;SDS011;58918;51.652;4.864;2022-07-06T12:04:29;3.05;;;0.65;;
71196;SDS011;58918;51.652;4.864;2022-07-06T12:07:04;3.00;;;0.77;;
71196;SDS011;58918;51.652;4.864;2022-07-06T12:11:59;3.17;;;0.93;;
71196;SDS011;58918;51.652;4.864;2022-07-06T12:14:30;2.10;;;0.60;;
71196;SDS011;58918;51.652;4.864;2022-07-06T12:17:02;3.22;;;0.70;;
71196;SDS011;58918;51.652;4.864;2022-07-06T12:19:30;3.72;;;0.70;;
71196;SDS011;58918;51.652;4.864;2022-07-06T12:21:57;3.63;;;0.90;;
71196;SDS011;58918;51.652;4.864;2022-07-06T12:24:28;3.33;;;0.90;;
71196;SDS011;58918;51.652;4.864;2022-07-06T12:26:57;2.42;;;0.80;;
71196;SDS011;58918;51.652;4.864;2022-07-06T12:29:25;3.55;;;0.80;;
71196;SDS011;58918;51.652;4.864;2022-07-06T12:31:56;3.63;;;0.90;;
71196;SDS011;58918;51.652;4.864;2022-07-06T12:34:26;2.38;;;0.73;;
71196;SDS011;58918;51.652;4.864;2022-07-06T12:36:55;2.42;;;0.80;;
71196;SDS011;58918;51.652;4.864;2022-07-06T12:39:32;2.35;;;0.93;;
71196;SDS011;58918;51.652;4.864;2022-07-06T12:42:02;2.92;;;1.00;;
71196;SDS011;58918;51.652;4.864;2022-07-06T12:44:31;3.78;;;0.75;;
71196;SDS011;58918;51.652;4.864;2022-07-06T12:47:02;2.40;;;0.70;;
71196;SDS011;58918;51.652;4.864;2022-07-06T12:49:30;2.65;;;0.65;;
71196;SDS011;58918;51.652;4.864;2022-07-06T12:54:34;3.42;;;1.23;;
71196;SDS011;58918;51.652;4.864;2022-07-06T12:59:42;3.28;;;0.88;;
71196;SDS011;58918;51.652;4.864;2022-07-06T13:02:23;3.78;;;1.00;;
71196;SDS011;58918;51.652;4.864;2022-07-06T13:05:11;3.95;;;0.98;;
71196;SDS011;58918;51.652;4.864;2022-07-06T13:07:43;4.30;;;1.08;;
71196;SDS011;58918;51.652;4.864;2022-07-06T13:10:11;3.20;;;0.80;;
71196;SDS011;58918;51.652;4.864;2022-07-06T13:12:39;2.55;;;0.70;;
71196;SDS011;58918;51.652;4.864;2022-07-06T13:15:07;4.20;;;0.95;;
71196;SDS011;58918;51.652;4.864;2022-07-06T13:17:35;2.05;;;0.73;;
71196;SDS011;58918;51.652;4.864;2022-07-06T13:20:04;3.00;;;0.90;;
71196;SDS011;58918;51.652;4.864;2022-07-06T13:22:32;1.92;;;0.68;;
71196;SDS011;58918;51.652;4.864;2022-07-06T13:24:59;3.13;;;0.73;;
71196;SDS011;58918;51.652;4.864;2022-07-06T13:27:26;3.88;;;0.90;;
71196;SDS011;58918;51.652;4.864;2022-07-06T13:29:53;3.03;;;0.82;;
71196;SDS011;58918;51.652;4.864;2022-07-06T13:32:21;3.95;;;0.90;;
71196;SDS011;58918;51.652;4.864;2022-07-06T13:34:48;2.80;;;0.70;;
71196;SDS011;58918;51.652;4.864;2022-07-06T13:37:15;2.08;;;0.88;;
71196;SDS011;58918;51.652;4.864;2022-07-06T13:39:43;2.85;;;0.90;;
71196;SDS011;58918;51.652;4.864;2022-07-06T13:42:10;4.00;;;1.00;;
71196;SDS011;58918;51.652;4.864;2022-07-06T13:44:37;3.75;;;0.80;;
71196;SDS011;58918;51.652;4.864;2022-07-06T13:47:05;3.92;;;1.15;;
71196;SDS011;58918;51.652;4.864;2022-07-06T13:49:32;3.55;;;0.80;;
71196;SDS011;58918;51.652;4.864;2022-07-06T13:51:59;3.30;;;0.90;;
71196;SDS011;58918;51.652;4.864;2022-07-06T13:54:30;5.90;;;0.98;;
71196;SDS011;58918;51.652;4.864;2022-07-06T13:56:57;2.78;;;0.80;;
71196;SDS011;58918;51.652;4.864;2022-07-06T13:59:25;2.90;;;0.90;;
71196;SDS011;58918;51.652;4.864;2022-07-06T14:01:52;2.72;;;1.10;;
71196;SDS011;58918;51.652;4.864;2022-07-06T14:04:19;2.95;;;0.75;;
71196;SDS011;58918;51.652;4.864;2022-07-06T14:06:46;2.83;;;1.08;;
71196;SDS011;58918;51.652;4.864;2022-07-06T14:09:14;3.13;;;0.80;;
71196;SDS011;58918;51.652;4.864;2022-07-06T14:11:41;4.55;;;1.00;;
71196;SDS011;58918;51.652;4.864;2022-07-06T14:14:08;2.15;;;0.70;;
71196;SDS011;58918;51.652;4.864;2022-07-06T14:16:35;5.88;;;0.90;;
71196;SDS011;58918;51.652;4.864;2022-07-06T14:19:02;2.92;;;1.00;;
71196;SDS011;58918;51.652;4.864;2022-07-06T14:21:30;2.70;;;1.00;;
71196;SDS011;58918;51.652;4.864;2022-07-06T14:23:58;3.45;;;0.90;;
71196;SDS011;58918;51.652;4.864;2022-07-06T14:26:25;4.57;;;1.00;;
71196;SDS011;58918;51.652;4.864;2022-07-06T14:28:52;4.22;;;1.65;;
71196;SDS011;58918;51.652;4.864;2022-07-06T14:31:19;3.83;;;0.80;;
71196;SDS011;58918;51.652;4.864;2022-07-06T14:33:48;4.28;;;1.00;;
71196;SDS011;58918;51.652;4.864;2022-07-06T14:36:15;5.25;;;1.17;;
71196;SDS011;58918;51.652;4.864;2022-07-06T14:38:43;4.95;;;1.17;;
71196;SDS011;58918;51.652;4.864;2022-07-06T14:41:10;5.55;;;1.30;;
71196;SDS011;58918;51.652;4.864;2022-07-06T14:43:37;2.63;;;0.90;;
71196;SDS011;58918;51.652;4.864;2022-07-06T14:46:04;4.53;;;1.10;;
71196;SDS011;58918;51.652;4.864;2022-07-06T14:48:32;7.30;;;1.45;;
71196;SDS011;58918;51.652;4.864;2022-07-06T14:50:59;5.22;;;1.20;;
71196;SDS011;58918;51.652;4.864;2022-07-06T14:53:26;4.93;;;1.23;;
71196;SDS011;58918;51.652;4.864;2022-07-06T14:55:54;5.45;;;1.38;;
71196;SDS011;58918;51.652;4.864;2022-07-06T14:58:22;4.15;;;1.05;;
71196;SDS011;58918;51.652;4.864;2022-07-06T15:00:49;3.53;;;1.27;;
71196;SDS011;58918;51.652;4.864;2022-07-06T15:03:24;6.30;;;1.50;;
71196;SDS011;58918;51.652;4.864;2022-07-06T15:05:52;4.10;;;1.30;;
71196;SDS011;58918;51.652;4.864;2022-07-06T15:08:19;6.90;;;1.73;;
71196;SDS011;58918;51.652;4.864;2022-07-06T15:10:46;6.05;;;1.70;;
71196;SDS011;58918;51.652;4.864;2022-07-06T15:13:14;5.03;;;1.35;;
71196;SDS011;58918;51.652;4.864;2022-07-06T15:15:42;6.65;;;1.45;;
71196;SDS011;58918;51.652;4.864;2022-07-06T15:18:24;4.88;;;1.60;;